Time,TemperatureF,DewpointF,PressureIn,WindDirection,WindDirectionDegrees,WindSpeedMPH,WindSpeedGustMPH,Humidity,HourlyPrecipIn,Conditions,Clouds,dailyrainin,SoftwareType,DateUTC
2013-05-29 00:01:00,52.6,49.4,29.68,ENE,62,0.0,0.0,89,0.00,,,0.09,Wunderground v.1.15,2013-05-29 07:01:00,
2013-05-29 00:31:00,52.5,49.4,29.67,ENE,62,0.0,0.0,89,0.00,,,0.00,Wunderground v.1.15,2013-05-29 07:31:00,
2013-05-29 01:01:00,52.2,49.4,29.66,ENE,62,0.0,0.0,90,0.00,,,0.00,Wunderground v.1.15,2013-05-29 08:01:00,
2013-05-29 01:31:00,52.2,49.1,29.65,ENE,63,0.0,0.0,89,0.00,,,0.00,Wunderground v.1.15,2013-05-29 08:31:00,
2013-05-29 02:01:00,51.9,48.5,29.63,ENE,59,0.0,0.0,88,0.00,,,0.00,Wunderground v.1.15,2013-05-29 09:01:00,
2013-05-29 02:31:00,51.4,48.6,29.62,ENE,59,0.0,0.0,90,0.00,,,0.00,Wunderground v.1.15,2013-05-29 09:31:00,
2013-05-29 03:01:00,51.3,48.2,29.60,ENE,59,0.0,0.0,89,0.00,,,0.00,Wunderground v.1.15,2013-05-29 10:01:00,
2013-05-29 03:31:00,51.3,48.5,29.60,ENE,59,0.0,0.0,90,0.00,,,0.00,Wunderground v.1.15,2013-05-29 10:31:00,
2013-05-29 04:01:00,51.4,49.4,29.61,SSW,202,2.0,5.0,93,0.00,,,0.01,Wunderground v.1.15,2013-05-29 11:01:00,
2013-05-29 04:31:00,50.8,49.1,29.61,SSW,193,0.0,0.0,94,0.07,,,0.05,Wunderground v.1.15,2013-05-29 11:31:00,
2013-05-29 05:01:00,49.9,48.2,29.60,SSW,192,0.0,0.0,94,0.00,,,0.07,Wunderground v.1.15,2013-05-29 12:01:00,
2013-05-29 05:31:00,49.5,47.8,29.61,SSW,193,0.0,0.0,94,0.00,,,0.08,Wunderground v.1.15,2013-05-29 12:31:00,
2013-05-29 06:01:00,49.6,48.2,29.60,West,279,0.0,0.0,95,0.00,,,0.09,Wunderground v.1.15,2013-05-29 13:01:00,
2013-05-29 06:31:00,49.8,48.4,29.61,WNW,284,0.0,0.0,95,0.00,,,0.10,Wunderground v.1.15,2013-05-29 13:31:00,
2013-05-29 07:01:00,49.9,48.5,29.61,WNW,295,0.0,0.0,95,0.00,,,0.10,Wunderground v.1.15,2013-05-29 14:01:00,
2013-05-29 07:31:00,50.4,49.0,29.61,WNW,296,0.0,0.0,95,0.00,,,0.11,Wunderground v.1.15,2013-05-29 14:31:00,
2013-05-29 08:01:00,51.1,49.7,29.61,WNW,296,0.0,0.0,95,0.00,,,0.11,Wunderground v.1.15,2013-05-29 15:01:00,
2013-05-29 08:31:00,51.7,50.3,29.61,WNW,295,0.0,0.0,95,0.00,,,0.11,Wunderground v.1.15,2013-05-29 15:31:00,
2013-05-29 09:01:00,52.5,50.8,29.62,NNW,334,0.0,0.0,94,0.00,,,0.11,Wunderground v.1.15,2013-05-29 16:01:00,
2013-05-29 09:31:00,55.3,53.0,29.62,NW,305,1.0,1.0,92,0.00,,,0.11,Wunderground v.1.15,2013-05-29 16:31:00,
2013-05-29 10:01:00,56.5,52.0,29.63,NW,306,1.0,1.0,85,0.00,,,0.11,Wunderground v.1.15,2013-05-29 17:01:00,
2013-05-29 10:31:00,58.3,52.2,29.64,West,260,1.0,1.0,80,0.00,,,0.11,Wunderground v.1.15,2013-05-29 17:31:00,
2013-05-29 11:01:00,58.6,51.4,29.66,WSW,258,1.0,1.0,77,0.00,,,0.11,Wunderground v.1.15,2013-05-29 18:01:00,
2013-05-29 11:31:00,58.9,51.3,29.67,West,268,0.0,0.0,76,0.00,,,0.11,Wunderground v.1.15,2013-05-29 18:31:00,
2013-05-29 12:01:00,59.0,50.7,29.68,South,189,2.0,5.0,74,0.00,,,0.11,Wunderground v.1.15,2013-05-29 19:01:00,
2013-05-29 12:31:00,59.8,50.0,29.70,SSE,166,2.0,3.0,70,0.00,,,0.11,Wunderground v.1.15,2013-05-29 19:31:00,
2013-05-29 13:01:00,59.6,49.4,29.70,SSW,204,3.0,3.0,69,0.00,,,0.11,Wunderground v.1.15,2013-05-29 20:01:00,
2013-05-29 13:31:00,58.0,48.3,29.72,South,183,4.0,7.0,70,0.00,,,0.11,Wunderground v.1.15,2013-05-29 20:31:00,
2013-05-29 14:01:00,58.1,48.7,29.72,South,185,4.0,7.0,71,0.00,,,0.11,Wunderground v.1.15,2013-05-29 21:01:00,
2013-05-29 14:31:00,59.2,49.0,29.73,South,178,3.0,7.0,69,0.00,,,0.11,Wunderground v.1.15,2013-05-29 21:31:00,
2013-05-29 15:01:00,58.6,50.0,29.75,SSW,199,3.0,3.0,73,0.00,,,0.11,Wunderground v.1.15,2013-05-29 22:01:00,
2013-05-29 15:31:00,58.7,48.6,29.75,SE,134,4.0,4.0,69,0.00,,,0.11,Wunderground v.1.15,2013-05-29 22:31:00,
2013-05-29 16:01:00,59.3,47.5,29.76,South,172,8.0,18.0,65,0.00,,,0.11,Wunderground v.1.15,2013-05-29 23:01:00,
2013-05-29 16:31:00,59.9,48.1,29.76,South,171,7.0,7.0,65,0.00,,,0.11,Wunderground v.1.15,2013-05-29 23:31:00,
2013-05-29 17:01:00,60.1,47.5,29.77,South,182,9.0,10.0,63,0.00,,,0.11,Wunderground v.1.15,2013-05-30 00:01:00,
2013-05-29 17:31:00,60.4,47.3,29.78,South,185,10.0,13.0,62,0.00,,,0.11,Wunderground v.1.15,2013-05-30 00:31:00,
2013-05-29 18:01:00,60.4,47.3,29.78,SSW,203,10.0,13.0,62,0.00,,,0.11,Wunderground v.1.15,2013-05-30 01:01:00,
2013-05-29 18:31:00,59.9,46.8,29.79,South,183,5.0,6.0,62,0.00,,,0.11,Wunderground v.1.15,2013-05-30 01:31:00,
2013-05-29 19:01:00,58.7,46.1,29.80,SSW,197,5.0,11.0,63,0.00,,,0.11,Wunderground v.1.15,2013-05-30 02:01:00,
2013-05-29 19:31:00,57.5,45.8,29.81,SW,216,4.0,4.0,65,0.00,,,0.11,Wunderground v.1.15,2013-05-30 02:31:00,
2013-05-29 20:01:00,56.7,45.9,29.83,SSE,154,4.0,4.0,67,0.00,,,0.11,Wunderground v.1.15,2013-05-30 03:01:00,
2013-05-29 20:31:00,55.9,45.9,29.83,SSW,206,3.0,3.0,69,0.00,,,0.11,Wunderground v.1.15,2013-05-30 03:31:00,
2013-05-29 21:01:00,55.4,46.2,29.84,South,180,3.0,3.0,71,0.00,,,0.11,Wunderground v.1.15,2013-05-30 04:01:00,
2013-05-29 21:31:00,55.7,46.4,29.84,South,175,3.0,5.0,71,0.00,,,0.11,Wunderground v.1.15,2013-05-30 04:31:00,
2013-05-29 22:01:00,55.4,46.2,29.85,SSW,212,2.0,2.0,71,0.00,,,0.11,Wunderground v.1.15,2013-05-30 05:01:00,
2013-05-29 22:31:00,55.0,46.5,29.86,SSW,192,2.0,2.0,73,0.00,,,0.11,Wunderground v.1.15,2013-05-30 05:31:00,
2013-05-29 23:01:00,54.2,47.5,29.87,SSW,193,3.0,6.0,78,0.00,,,0.11,Wunderground v.1.15,2013-05-30 06:01:00,
2013-05-29 23:31:00,53.6,47.9,29.88,South,171,3.0,3.0,81,0.00,,,0.11,Wunderground v.1.15,2013-05-30 06:31:00,